»·PEaware :: N698SP KSNA-KCRQ

N698SP :: KSNA-KCRQ

FLIGHT INFORMATION

Flight Status: Arrived
Operator: Privately registered:
United States
More flights under this callsign
Pilot: Kevin S. (26378)
Aircraft: SOCATA TBM-900
(TBM9)
More flights by this aircraft type
Origin: KSNA John Wayne-Orange Co
United States
Destination: KCRQ McClellan-Palomar
United States
More flights between these airports :: More routes between these airports
Route: +V25 PACIF V208 OCN
File this flight plan on PilotEdge
Remarks:
Altitude:
(Current/Filed)
7,000ft
Speed:
(Current/Filed)
180kts
Departed: 29-Dec-19 09:49 AM
Arrived: 29-Dec-19 10:19 AM
Distance/Time
Traveled:
0nm/0:30
Distance/Time
To Go:
Arrived

Flight Plot

Page will automatically refresh every two minutes.


Map Options




Map Legend


Flown Route
Filed Route
Departure Airport
Arrival Airport
Navaid (VOR, NDB)
Fix

Horizontal Profiles

Position Reports

Time Latitude Longitude Heading Altitude Ground
Speed
29-Dec-19 09:20 33.675762 -117.871523 220 59ft 0kts
29-Dec-19 09:21 33.675762 -117.871523 220 59ft 0kts
29-Dec-19 09:22 33.675762 -117.871523 220 59ft 0kts
29-Dec-19 09:23 33.675762 -117.871523 220 59ft 0kts
29-Dec-19 09:24 33.675762 -117.871523 220 59ft 0kts
29-Dec-19 09:25 33.675762 -117.871523 220 59ft 0kts
29-Dec-19 09:26 33.675762 -117.871523 220 59ft 0kts
29-Dec-19 09:27 33.675762 -117.871523 220 59ft 0kts
29-Dec-19 09:28 33.675762 -117.871523 220 59ft 0kts
29-Dec-19 09:29 33.675039 -117.872248 219 59ft 0kts
29-Dec-19 09:30 33.675039 -117.872248 219 59ft 0kts
29-Dec-19 09:31 33.675039 -117.872248 219 59ft 0kts
29-Dec-19 09:32 33.675039 -117.872248 219 59ft 0kts
29-Dec-19 09:33 33.675039 -117.872248 219 59ft 0kts
29-Dec-19 09:33 33.675039 -117.872248 219 59ft 0kts
29-Dec-19 09:35 33.674879 -117.872142 119 59ft 0kts
29-Dec-19 09:36 33.674879 -117.872142 119 59ft 0kts
29-Dec-19 09:36 33.674879 -117.872142 119 59ft 0kts
29-Dec-19 09:37 33.674879 -117.872142 119 59ft 0kts
29-Dec-19 09:38 33.676318 -117.869921 27 59ft 16kts
29-Dec-19 09:39 33.680983 -117.867177 30 59ft 20kts
29-Dec-19 09:41 33.681263 -117.866579 108 59ft 0kts
29-Dec-19 09:41 33.681263 -117.866579 108 59ft 0kts
29-Dec-19 09:42 33.681263 -117.866579 108 59ft 0kts
29-Dec-19 09:43 33.681263 -117.866579 108 59ft 0kts
29-Dec-19 09:44 33.681263 -117.866579 108 59ft 0kts
29-Dec-19 09:45 33.681263 -117.866579 108 59ft 0kts
29-Dec-19 09:46 33.681263 -117.866579 108 59ft 0kts
29-Dec-19 09:47 33.680728 -117.865822 173 59ft 18kts
29-Dec-19 09:48 33.657123 -117.877209 186 767ft 143kts
29-Dec-19 09:49 33.618997 -117.882370 186 2032ft 135kts
29-Dec-19 09:50 33.573603 -117.887878 186 3843ft 180kts
29-Dec-19 09:51 33.533967 -117.891770 187 5011ft 133kts
29-Dec-19 09:52 33.490925 -117.895571 186 5014ft 168kts
29-Dec-19 09:53 33.446754 -117.899655 186 4991ft 151kts
29-Dec-19 09:54 33.412752 -117.877700 139 4980ft 128kts
29-Dec-19 09:55 33.387773 -117.855138 139 5879ft 121kts
29-Dec-19 09:56 33.359407 -117.822419 131 7050ft 181kts
29-Dec-19 09:57 33.314559 -117.771041 135 7010ft 244kts
29-Dec-19 09:58 33.270324 -117.708903 121 7002ft 247kts
29-Dec-19 09:59 33.230738 -117.639865 121 7005ft 259kts
29-Dec-19 10:00 33.189284 -117.567697 121 7001ft 264kts
29-Dec-19 10:01 33.147792 -117.494805 121 7002ft 266kts
29-Dec-19 10:02 33.107542 -117.423229 121 6986ft 242kts
29-Dec-19 10:03 33.070924 -117.358602 121 6991ft 229kts
29-Dec-19 10:04 33.038029 -117.295517 91 6970ft 221kts
29-Dec-19 10:05 33.051369 -117.225682 71 5701ft 213kts
29-Dec-19 10:06 33.065917 -117.160801 71 4979ft 182kts
29-Dec-19 10:07 33.079006 -117.100848 71 5001ft 188kts
29-Dec-19 10:08 33.092345 -117.039843 71 4997ft 191kts
29-Dec-19 10:09 33.106011 -116.977785 71 4992ft 193kts
29-Dec-19 10:10 33.128103 -116.924263 4 4986ft 180kts
29-Dec-19 10:11 33.151543 -116.968433 281 4726ft 186kts
29-Dec-19 10:12 33.158973 -117.027013 281 3585ft 170kts
29-Dec-19 10:13 33.161925 -117.077968 255 3601ft 156kts
29-Dec-19 10:14 33.151678 -117.135396 261 2777ft 174kts
29-Dec-19 10:15 33.143024 -117.188694 260 1847ft 155kts
29-Dec-19 10:16 33.136631 -117.228274 260 1164ft 112kts
29-Dec-19 10:17 33.131178 -117.261955 260 582ft 87kts
29-Dec-19 10:18 33.127726 -117.279635 218 334ft 18kts
29-Dec-19 10:19 33.127494 -117.279747 182 334ft 2kts
29-Dec-19 10:20 33.127171 -117.276932 42 334ft 0kts
29-Dec-19 10:31 33.675701 -117.871586 220 59ft 0kts
29-Dec-19 10:32 33.675701 -117.871586 220 59ft 0kts

Navigation Log

Ident Type
Flight plan parsing failed, navigation log unavailable